createdAt,value
2019-03-24T00:00:14.945Z,12.36
2019-03-24T00:01:25.041Z,12.33
2019-03-24T00:02:33.016Z,12.34
2019-03-24T00:03:41.200Z,12.36
2019-03-24T00:04:49.235Z,12.37
2019-03-24T00:05:57.169Z,12.38
2019-03-24T00:07:05.136Z,12.37
2019-03-24T00:08:13.483Z,12.33
2019-03-24T00:09:21.587Z,12.28
2019-03-24T00:10:29.551Z,12.29
2019-03-24T00:11:37.859Z,12.28
2019-03-24T00:12:46.061Z,12.27
2019-03-24T00:13:54.700Z,12.28
2019-03-24T00:15:02.714Z,12.30
2019-03-24T00:16:10.985Z,12.33
2019-03-24T00:17:19.213Z,12.34
2019-03-24T00:18:27.228Z,12.35
2019-03-24T00:19:35.321Z,12.34
2019-03-24T00:20:43.330Z,12.35
2019-03-24T00:21:51.590Z,12.36
2019-03-24T00:22:59.572Z,12.34
2019-03-24T00:24:07.518Z,12.35
2019-03-24T00:25:15.673Z,12.31
2019-03-24T00:26:23.776Z,12.30
2019-03-24T00:27:32.104Z,12.29
2019-03-24T00:28:40.047Z,12.32
2019-03-24T00:29:48.065Z,12.28
2019-03-24T00:30:56.211Z,12.27
2019-03-24T00:32:04.342Z,12.27
2019-03-24T00:33:12.201Z,12.25
2019-03-24T00:34:20.194Z,12.28
2019-03-24T00:35:28.611Z,12.29
2019-03-24T00:36:36.607Z,12.28
2019-03-24T00:37:44.503Z,12.27
2019-03-24T00:38:52.494Z,12.28
2019-03-24T00:40:00.834Z,12.27
2019-03-24T00:41:09.009Z,12.25
2019-03-24T00:42:16.898Z,12.27
2019-03-24T00:43:25.228Z,12.24
2019-03-24T00:44:33.287Z,12.23
2019-03-24T00:45:41.509Z,12.25
2019-03-24T00:46:49.682Z,12.25
2019-03-24T00:47:59.944Z,12.24
2019-03-24T00:49:07.998Z,12.25
2019-03-24T00:50:16.242Z,12.23
2019-03-24T00:51:24.241Z,12.26
2019-03-24T00:52:32.345Z,12.28
2019-03-24T00:53:40.231Z,12.30
2019-03-24T00:54:48.240Z,12.27
2019-03-24T00:55:56.260Z,12.22
2019-03-24T00:57:04.636Z,12.20
2019-03-24T00:58:12.578Z,12.18
2019-03-24T00:59:20.915Z,12.19
2019-03-24T01:00:50.850Z,12.17
2019-03-24T01:01:59.027Z,12.08
2019-03-24T01:03:07.239Z,12.01
2019-03-24T01:04:17.085Z,12.02
2019-03-24T01:05:25.027Z,12.04
2019-03-24T01:06:32.890Z,12.05
2019-03-24T01:07:41.894Z,12.04
2019-03-24T01:08:50.075Z,12.08
2019-03-24T01:09:58.452Z,12.10
2019-03-24T01:11:06.899Z,12.13
2019-03-24T01:12:14.868Z,12.12
2019-03-24T01:13:22.715Z,12.13
2019-03-24T01:14:30.714Z,12.15
2019-03-24T01:15:47.330Z,12.10
2019-03-24T01:16:48.788Z,12.05
2019-03-24T01:17:57.441Z,12.04
2019-03-24T01:19:05.813Z,12.06
2019-03-24T01:20:14.010Z,12.07
2019-03-24T01:21:21.941Z,12.08
2019-03-24T01:22:30.205Z,12.08
2019-03-24T01:23:38.127Z,12.07
2019-03-24T01:24:46.274Z,12.07
2019-03-24T01:25:54.451Z,12.07
2019-03-24T01:27:02.853Z,12.05
2019-03-24T01:28:11.073Z,12.02
2019-03-24T01:29:18.813Z,12.02
2019-03-24T01:30:27.080Z,12.02
2019-03-24T01:31:35.400Z,12.03
2019-03-24T01:32:43.511Z,12.08
2019-03-24T01:33:51.576Z,12.11
2019-03-24T01:34:59.894Z,12.17
2019-03-24T01:36:08.097Z,12.20
2019-03-24T01:37:16.144Z,12.21
2019-03-24T01:38:24.289Z,12.17
2019-03-24T01:39:32.422Z,12.15
2019-03-24T01:40:40.462Z,12.08
2019-03-24T01:41:48.662Z,12.01
2019-03-24T01:42:56.719Z,11.99
2019-03-24T01:44:04.701Z,11.94
2019-03-24T01:45:12.949Z,11.94
2019-03-24T01:46:21.022Z,11.95
2019-03-24T01:47:29.114Z,11.98
2019-03-24T01:48:37.177Z,12.00
2019-03-24T01:49:45.316Z,11.97
2019-03-24T01:50:53.404Z,11.97
2019-03-24T01:52:01.420Z,12.01
2019-03-24T01:53:09.560Z,12.01
2019-03-24T01:54:17.849Z,11.95
2019-03-24T01:55:25.981Z,11.92
2019-03-24T01:56:34.452Z,11.89
2019-03-24T01:57:42.957Z,11.86
2019-03-24T01:58:51.162Z,11.86
2019-03-24T01:59:59.571Z,11.84
2019-03-24T02:01:07.875Z,11.83
2019-03-24T02:02:16.475Z,11.84
2019-03-24T02:03:24.660Z,11.84
2019-03-24T02:04:33.179Z,11.84
2019-03-24T02:05:41.468Z,11.86
2019-03-24T02:06:49.674Z,11.89
2019-03-24T02:07:58.086Z,11.93
2019-03-24T02:09:08.588Z,11.93
2019-03-24T02:10:16.961Z,11.95
2019-03-24T02:11:25.143Z,11.95
2019-03-24T02:12:33.145Z,11.98
2019-03-24T02:13:40.955Z,11.96
2019-03-24T02:14:48.812Z,11.96
2019-03-24T02:15:57.023Z,11.96
2019-03-24T02:17:05.320Z,11.97
2019-03-24T02:18:13.839Z,11.96
2019-03-24T02:19:22.156Z,11.96
2019-03-24T02:20:30.535Z,11.96
2019-03-24T02:21:38.637Z,11.93
2019-03-24T02:22:46.929Z,11.96
2019-03-24T02:23:55.578Z,11.92
2019-03-24T02:25:03.831Z,11.95
2019-03-24T02:26:11.888Z,11.93
2019-03-24T02:27:20.252Z,11.94
2019-03-24T02:28:28.325Z,11.93
2019-03-24T02:29:36.526Z,11.94
2019-03-24T02:30:45.236Z,11.95
2019-03-24T02:31:53.124Z,11.99
2019-03-24T02:33:01.471Z,11.99
2019-03-24T02:34:09.734Z,12.02
2019-03-24T02:35:18.116Z,12.04
2019-03-24T02:36:26.251Z,12.06
2019-03-24T02:37:34.540Z,12.07
2019-03-24T02:38:42.633Z,12.09
2019-03-24T02:39:50.829Z,12.10
2019-03-24T02:40:58.989Z,12.10
2019-03-24T02:42:06.940Z,12.08
2019-03-24T02:43:14.877Z,12.09
2019-03-24T02:44:23.118Z,12.09
2019-03-24T02:45:31.461Z,12.11
2019-03-24T02:46:39.779Z,12.11
2019-03-24T02:47:47.648Z,12.14
2019-03-24T02:48:56.028Z,12.18
2019-03-24T02:50:04.061Z,12.20
2019-03-24T02:51:12.325Z,12.21
2019-03-24T02:52:20.300Z,12.22
2019-03-24T02:53:28.508Z,12.24
2019-03-24T02:54:36.811Z,12.25
2019-03-24T02:55:44.907Z,12.25
2019-03-24T02:56:53.231Z,12.26
2019-03-24T02:58:01.570Z,12.26
2019-03-24T02:59:09.500Z,12.27
2019-03-24T03:00:19.908Z,12.30
2019-03-24T03:01:27.867Z,12.32
2019-03-24T03:02:36.048Z,12.33
2019-03-24T03:03:44.254Z,12.36
2019-03-24T03:04:52.238Z,12.37
2019-03-24T03:06:00.523Z,12.41
2019-03-24T03:07:08.962Z,12.42
2019-03-24T03:08:17.075Z,12.43
2019-03-24T03:09:25.113Z,12.46
2019-03-24T03:10:33.073Z,12.45
2019-03-24T03:11:41.417Z,12.45
2019-03-24T03:12:49.612Z,12.45
2019-03-24T03:13:57.610Z,12.45
2019-03-24T03:15:08.805Z,12.45
2019-03-24T03:16:16.722Z,12.45
2019-03-24T03:17:24.736Z,12.43
2019-03-24T03:18:32.538Z,12.45
2019-03-24T03:19:40.674Z,12.46
2019-03-24T03:20:48.514Z,12.47
2019-03-24T03:21:56.669Z,12.45
2019-03-24T03:23:04.652Z,12.48
2019-03-24T03:24:12.576Z,12.48
2019-03-24T03:25:20.551Z,12.50
2019-03-24T03:26:28.653Z,12.48
2019-03-24T03:27:36.785Z,12.46
2019-03-24T03:28:44.601Z,12.48
2019-03-24T03:29:52.455Z,12.46
2019-03-24T03:31:00.571Z,12.45
2019-03-24T03:32:08.644Z,12.46
2019-03-24T03:33:17.546Z,12.46
2019-03-24T03:34:25.921Z,12.45
2019-03-24T03:35:34.041Z,12.45
2019-03-24T03:36:42.318Z,12.43
2019-03-24T03:37:50.244Z,12.42
2019-03-24T03:38:58.566Z,12.42
2019-03-24T03:40:09.378Z,12.41
2019-03-24T03:41:17.607Z,12.40
2019-03-24T03:42:25.648Z,12.42
2019-03-24T03:43:33.801Z,12.41
2019-03-24T03:44:41.963Z,12.40
2019-03-24T03:45:49.843Z,12.40
2019-03-24T03:46:57.740Z,12.41
2019-03-24T03:48:05.975Z,12.40
2019-03-24T03:49:14.093Z,12.38
2019-03-24T03:50:22.185Z,12.36
2019-03-24T03:51:30.237Z,12.37
2019-03-24T03:52:38.359Z,12.33
2019-03-24T03:53:46.376Z,12.33
2019-03-24T03:54:56.105Z,12.31
2019-03-24T03:56:04.042Z,12.31
2019-03-24T03:57:12.311Z,12.31
2019-03-24T03:58:20.475Z,12.31
2019-03-24T03:59:28.537Z,12.33
2019-03-24T04:00:37.878Z,12.33
2019-03-24T04:01:45.759Z,12.32
2019-03-24T04:02:53.744Z,12.32
2019-03-24T04:04:01.602Z,12.31
2019-03-24T04:05:09.742Z,12.32
2019-03-24T04:06:17.782Z,12.30
2019-03-24T04:07:25.759Z,12.29
2019-03-24T04:08:33.567Z,12.28
2019-03-24T04:09:41.458Z,12.26
2019-03-24T04:10:49.359Z,12.27
2019-03-24T04:11:57.332Z,12.27
2019-03-24T04:13:05.463Z,12.25
2019-03-24T04:14:13.736Z,12.21
2019-03-24T04:15:21.684Z,12.20
2019-03-24T04:16:30.033Z,12.19
2019-03-24T04:17:38.121Z,12.15
2019-03-24T04:18:46.428Z,12.14
2019-03-24T04:19:54.431Z,12.14
2019-03-24T04:21:02.272Z,12.12
2019-03-24T04:22:10.327Z,12.13
2019-03-24T04:23:18.324Z,12.13
2019-03-24T04:24:26.304Z,12.13
2019-03-24T04:25:34.405Z,12.11
2019-03-24T04:26:42.576Z,12.09
2019-03-24T04:27:50.608Z,12.09
2019-03-24T04:28:58.548Z,12.08
2019-03-24T04:30:08.622Z,12.09
2019-03-24T04:31:16.615Z,12.08
2019-03-24T04:32:24.581Z,12.10
2019-03-24T04:33:32.421Z,12.10
2019-03-24T04:34:40.262Z,12.06
2019-03-24T04:35:48.598Z,12.06
2019-03-24T04:36:56.508Z,12.06
2019-03-24T04:38:04.600Z,12.05
2019-03-24T04:39:12.800Z,12.03
2019-03-24T04:40:20.996Z,12.02
2019-03-24T04:41:28.779Z,12.03
2019-03-24T04:42:36.681Z,12.02
2019-03-24T04:43:44.746Z,12.02
2019-03-24T04:44:52.618Z,12.02
2019-03-24T04:46:00.544Z,12.02
2019-03-24T04:47:16.300Z,12.02
2019-03-24T04:48:18.262Z,12.03
2019-03-24T04:49:26.268Z,12.02
2019-03-24T04:50:34.277Z,12.00
2019-03-24T04:51:41.989Z,11.98
2019-03-24T04:52:49.946Z,11.97
2019-03-24T04:53:57.839Z,11.96
2019-03-24T04:55:07.598Z,11.94
2019-03-24T04:56:15.589Z,11.92
2019-03-24T04:57:23.687Z,11.90
2019-03-24T04:58:31.871Z,11.90
2019-03-24T04:59:39.805Z,11.91
2019-03-24T05:00:47.861Z,11.89
2019-03-24T05:01:56.172Z,11.91
2019-03-24T05:03:04.272Z,11.91
2019-03-24T05:04:12.461Z,11.87
2019-03-24T05:05:20.555Z,11.84
2019-03-24T05:06:28.746Z,11.84
2019-03-24T05:07:36.992Z,11.84
2019-03-24T05:08:46.584Z,11.83
2019-03-24T05:09:55.333Z,11.83
2019-03-24T05:11:03.249Z,11.82
2019-03-24T05:12:11.385Z,11.83
2019-03-24T05:13:19.388Z,11.81
2019-03-24T05:14:27.173Z,11.82
2019-03-24T05:15:35.027Z,11.82
2019-03-24T05:16:43.062Z,11.77
2019-03-24T05:17:51.031Z,11.75
2019-03-24T05:18:59.151Z,11.73
2019-03-24T05:20:07.988Z,11.69
2019-03-24T05:21:16.149Z,11.67
2019-03-24T05:22:24.067Z,11.67
2019-03-24T05:23:32.253Z,11.68
2019-03-24T05:24:40.328Z,11.68
2019-03-24T05:25:48.651Z,11.71
2019-03-24T05:26:56.754Z,11.71
2019-03-24T05:28:04.781Z,11.73
2019-03-24T05:29:13.042Z,11.69
2019-03-24T05:30:21.140Z,11.69
2019-03-24T05:31:29.249Z,11.66
2019-03-24T05:32:37.435Z,11.68
2019-03-24T05:33:45.434Z,11.68
2019-03-24T05:34:53.363Z,11.67
2019-03-24T05:36:01.601Z,11.68
2019-03-24T05:37:09.844Z,11.67
2019-03-24T05:38:17.863Z,11.67
2019-03-24T05:39:26.140Z,11.67
2019-03-24T05:40:34.049Z,11.66
2019-03-24T05:41:42.010Z,11.68
2019-03-24T05:42:50.211Z,11.68
2019-03-24T05:43:58.730Z,11.67
2019-03-24T05:45:10.210Z,11.68
2019-03-24T05:46:18.340Z,11.68
2019-03-24T05:47:36.635Z,11.69
2019-03-24T05:48:36.305Z,11.67
2019-03-24T05:49:44.423Z,11.68
2019-03-24T05:50:52.522Z,11.68
2019-03-24T05:52:00.719Z,11.69
2019-03-24T05:53:08.736Z,11.68
2019-03-24T05:54:16.825Z,11.69
2019-03-24T05:55:24.992Z,11.67
2019-03-24T05:56:33.016Z,11.66
2019-03-24T05:57:40.896Z,11.65
2019-03-24T05:58:48.770Z,11.63
2019-03-24T05:59:56.942Z,11.62
2019-03-24T06:01:04.962Z,11.63
2019-03-24T06:02:13.007Z,11.64
2019-03-24T06:03:21.177Z,11.64
2019-03-24T06:04:29.290Z,11.66
2019-03-24T06:05:37.437Z,11.66
2019-03-24T06:06:45.474Z,11.66
2019-03-24T06:07:53.679Z,11.66
2019-03-24T06:09:02.029Z,11.62
2019-03-24T06:10:10.398Z,11.62
2019-03-24T06:11:18.560Z,11.61
2019-03-24T06:12:26.582Z,11.60
2019-03-24T06:13:35.132Z,11.62
2019-03-24T06:14:43.155Z,11.63
2019-03-24T06:15:51.448Z,11.63
2019-03-24T06:16:59.449Z,11.64
2019-03-24T06:18:07.591Z,11.62
2019-03-24T06:19:15.975Z,11.66
2019-03-24T06:20:24.047Z,11.67
2019-03-24T06:21:32.452Z,11.66
2019-03-24T06:22:40.828Z,11.67
2019-03-24T06:23:48.732Z,11.67
2019-03-24T06:24:59.012Z,11.69
2019-03-24T06:26:06.888Z,11.68
2019-03-24T06:27:15.013Z,11.70
2019-03-24T06:28:23.505Z,11.71
2019-03-24T06:29:31.866Z,11.73
2019-03-24T06:30:40.280Z,11.75
2019-03-24T06:31:48.803Z,11.74
2019-03-24T06:32:56.969Z,11.76
2019-03-24T06:34:05.045Z,11.76
2019-03-24T06:35:13.294Z,11.74
2019-03-24T06:36:21.522Z,11.76
2019-03-24T06:37:29.835Z,11.75
2019-03-24T06:38:38.206Z,11.75
2019-03-24T06:39:46.254Z,11.76
2019-03-24T06:40:54.495Z,11.75
2019-03-24T06:42:02.668Z,11.76
2019-03-24T06:43:10.757Z,11.77
2019-03-24T06:44:19.134Z,11.76
2019-03-24T06:45:28.751Z,11.76
2019-03-24T06:46:36.757Z,11.77
2019-03-24T06:47:45.035Z,11.73
2019-03-24T06:48:53.371Z,11.75
2019-03-24T06:50:01.700Z,11.76
2019-03-24T06:51:09.878Z,11.77
2019-03-24T06:52:18.115Z,11.80
2019-03-24T06:53:26.258Z,11.81
2019-03-24T06:54:34.274Z,11.83
2019-03-24T06:55:42.444Z,11.83
2019-03-24T06:56:50.522Z,11.83
2019-03-24T06:57:59.059Z,11.85
2019-03-24T06:59:07.405Z,11.85
2019-03-24T07:00:16.111Z,11.84
2019-03-24T07:01:24.155Z,11.87
2019-03-24T07:02:32.640Z,11.88
2019-03-24T07:03:40.669Z,11.89
2019-03-24T07:04:48.887Z,11.90
2019-03-24T07:05:57.423Z,11.89
2019-03-24T07:07:46.272Z,11.92
2019-03-24T07:08:54.650Z,11.86
2019-03-24T07:10:03.031Z,11.89
2019-03-24T07:11:13.907Z,11.92
2019-03-24T07:12:21.884Z,11.90
2019-03-24T07:13:30.592Z,11.92
2019-03-24T07:14:38.892Z,11.92
2019-03-24T07:15:46.943Z,11.91
2019-03-24T07:16:54.898Z,11.94
2019-03-24T07:18:08.397Z,11.96
2019-03-24T07:19:13.969Z,11.98
2019-03-24T07:20:22.064Z,11.99
2019-03-24T07:21:30.457Z,12.01
2019-03-24T07:22:38.695Z,12.03
2019-03-24T07:23:46.889Z,12.04
2019-03-24T07:24:55.060Z,12.06
2019-03-24T07:26:03.000Z,12.09
2019-03-24T07:27:10.954Z,12.11
2019-03-24T07:28:19.102Z,12.14
2019-03-24T07:29:27.248Z,12.12
2019-03-24T07:30:35.651Z,12.13
2019-03-24T07:31:43.546Z,12.18
2019-03-24T07:32:51.533Z,12.21
2019-03-24T07:33:59.654Z,12.23
2019-03-24T07:35:08.860Z,12.27
2019-03-24T07:36:17.050Z,12.28
2019-03-24T07:37:25.254Z,12.31
2019-03-24T07:38:33.762Z,12.33
2019-03-24T07:39:42.077Z,12.36
2019-03-24T07:40:49.938Z,12.36
2019-03-24T07:41:57.834Z,12.38
2019-03-24T07:43:05.944Z,12.38
2019-03-24T07:44:13.858Z,12.32
2019-03-24T07:45:22.018Z,12.29
2019-03-24T07:46:30.066Z,12.26
2019-03-24T07:47:38.211Z,12.26
2019-03-24T07:48:46.409Z,12.28
2019-03-24T07:49:54.318Z,12.27
2019-03-24T07:51:02.442Z,12.23
2019-03-24T07:52:11.010Z,12.25
2019-03-24T07:53:20.295Z,12.25
2019-03-24T07:54:28.166Z,12.24
2019-03-24T07:55:36.694Z,12.24
2019-03-24T07:56:44.624Z,12.26
2019-03-24T07:57:52.635Z,12.27
2019-03-24T07:59:01.041Z,12.29
2019-03-24T08:00:12.421Z,12.29
2019-03-24T08:01:20.387Z,12.30
2019-03-24T08:02:28.594Z,12.30
2019-03-24T08:03:36.379Z,12.32
2019-03-24T08:04:44.308Z,12.38
2019-03-24T08:05:52.277Z,12.39
2019-03-24T08:07:00.546Z,12.40
2019-03-24T08:08:08.671Z,12.41
2019-03-24T08:09:16.682Z,12.46
2019-03-24T08:10:24.559Z,12.50
2019-03-24T08:11:33.064Z,12.50
2019-03-24T08:12:41.281Z,12.54
2019-03-24T08:13:53.908Z,12.55
2019-03-24T08:15:00.088Z,12.53
2019-03-24T08:16:08.320Z,12.47
2019-03-24T08:17:16.322Z,12.49
2019-03-24T08:18:29.858Z,12.46
2019-03-24T08:19:34.098Z,12.49
2019-03-24T08:20:42.348Z,12.53
2019-03-24T08:21:50.440Z,12.58
2019-03-24T08:22:58.638Z,12.62
2019-03-24T08:24:06.771Z,12.65
2019-03-24T08:25:15.470Z,12.70
2019-03-24T08:26:23.547Z,12.71
2019-03-24T08:27:31.536Z,12.76
2019-03-24T08:28:39.974Z,12.80
2019-03-24T08:29:49.636Z,12.85
2019-03-24T08:30:57.806Z,12.87
2019-03-24T08:32:05.924Z,12.89
2019-03-24T08:33:14.199Z,12.90
2019-03-24T08:34:22.584Z,12.92
2019-03-24T08:35:30.831Z,12.93
2019-03-24T08:36:39.007Z,12.96
2019-03-24T08:37:47.155Z,12.98
2019-03-24T08:38:55.505Z,13.04
2019-03-24T08:40:04.090Z,13.07
2019-03-24T08:41:12.141Z,13.10
2019-03-24T08:42:20.587Z,13.14
2019-03-24T08:43:28.890Z,13.16
2019-03-24T08:44:36.963Z,13.19
2019-03-24T08:45:45.077Z,13.22
2019-03-24T08:46:53.073Z,13.24
2019-03-24T08:48:01.385Z,13.30
2019-03-24T08:49:09.991Z,13.32
2019-03-24T08:50:18.168Z,13.36
2019-03-24T08:51:26.699Z,13.31
2019-03-24T08:52:35.225Z,13.31
2019-03-24T08:53:43.392Z,13.32
2019-03-24T08:54:51.484Z,13.37
2019-03-24T08:55:59.433Z,13.41
2019-03-24T08:57:07.691Z,13.48
2019-03-24T08:58:15.905Z,13.53
2019-03-24T08:59:25.231Z,13.55
2019-03-24T09:00:33.455Z,13.52
2019-03-24T09:01:41.914Z,13.56
2019-03-24T09:02:50.176Z,13.62
2019-03-24T09:03:58.298Z,13.68
2019-03-24T09:05:08.311Z,13.76
2019-03-24T09:06:16.332Z,13.82
2019-03-24T09:07:24.460Z,13.87
2019-03-24T09:08:32.796Z,13.91
2019-03-24T09:09:41.595Z,13.92
2019-03-24T09:10:49.781Z,13.94
2019-03-24T09:11:57.780Z,13.95
2019-03-24T09:13:06.824Z,13.98
2019-03-24T09:14:15.316Z,14.05
2019-03-24T09:15:23.228Z,14.06
2019-03-24T09:16:31.655Z,14.03
2019-03-24T09:17:41.389Z,14.03
2019-03-24T09:18:52.873Z,14.00
2019-03-24T09:19:59.061Z,14.03
2019-03-24T09:21:07.580Z,14.07
2019-03-24T09:22:15.699Z,14.14
2019-03-24T09:23:23.874Z,14.21
2019-03-24T09:24:32.182Z,14.31
2019-03-24T09:25:40.728Z,14.31
2019-03-24T09:26:48.795Z,14.37
2019-03-24T09:27:57.095Z,14.43
2019-03-24T09:29:05.188Z,14.50
2019-03-24T09:30:34.973Z,14.56
2019-03-24T09:31:43.296Z,14.64
2019-03-24T09:32:51.513Z,14.72
2019-03-24T09:33:59.891Z,14.78
2019-03-24T09:35:08.875Z,14.83
2019-03-24T09:36:17.104Z,14.90
2019-03-24T09:37:25.109Z,14.96
2019-03-24T09:38:33.103Z,15.02
2019-03-24T09:39:41.582Z,15.07
2019-03-24T09:40:49.512Z,15.09
2019-03-24T09:41:57.500Z,15.16
2019-03-24T09:43:07.313Z,15.17
2019-03-24T09:44:15.526Z,15.22
2019-03-24T09:45:23.722Z,15.23
2019-03-24T09:46:31.757Z,15.26
2019-03-24T09:47:40.470Z,15.32
2019-03-24T09:48:48.531Z,15.34
2019-03-24T09:49:56.431Z,15.38
2019-03-24T09:51:04.603Z,15.42
2019-03-24T09:52:12.919Z,15.49
2019-03-24T09:53:20.973Z,15.55
2019-03-24T09:54:29.114Z,15.60
2019-03-24T09:55:37.295Z,15.60
2019-03-24T09:56:45.513Z,15.62
2019-03-24T09:57:53.616Z,15.67
2019-03-24T09:59:02.135Z,15.68
2019-03-24T10:00:11.084Z,15.68
2019-03-24T10:01:19.185Z,15.74
2019-03-24T10:02:27.273Z,15.81
2019-03-24T10:03:35.378Z,15.91
2019-03-24T10:04:43.620Z,16.00
2019-03-24T10:05:51.720Z,16.09
2019-03-24T10:07:00.005Z,16.17
2019-03-24T10:08:08.255Z,16.25
2019-03-24T10:09:16.315Z,16.34
2019-03-24T10:10:24.808Z,16.41
2019-03-24T10:11:33.224Z,16.51
2019-03-24T10:12:41.682Z,16.59
2019-03-24T10:13:49.842Z,16.65
2019-03-24T10:14:57.863Z,16.74
2019-03-24T10:16:06.013Z,16.84
2019-03-24T10:17:14.626Z,16.91
2019-03-24T10:18:23.089Z,16.95
2019-03-24T10:19:31.190Z,17.00
2019-03-24T10:20:39.324Z,17.09
2019-03-24T10:21:47.732Z,17.18
2019-03-24T10:22:55.937Z,17.30
2019-03-24T10:24:04.026Z,17.47
2019-03-24T10:25:12.474Z,17.62
2019-03-24T10:26:20.484Z,17.81
2019-03-24T10:27:28.733Z,17.97
2019-03-24T10:28:36.931Z,18.14
2019-03-24T10:29:45.281Z,18.34
2019-03-24T10:30:53.744Z,18.59
2019-03-24T10:32:01.915Z,18.73
2019-03-24T10:33:10.179Z,18.95
2019-03-24T10:34:18.951Z,19.17
2019-03-24T10:35:27.195Z,19.18
2019-03-24T10:36:35.349Z,19.21
2019-03-24T10:37:43.475Z,19.19
2019-03-24T10:38:51.546Z,19.29
2019-03-24T10:39:59.637Z,19.47
2019-03-24T10:41:07.646Z,19.66
2019-03-24T10:42:16.073Z,19.90
2019-03-24T10:43:24.066Z,20.15
2019-03-24T10:44:32.243Z,20.36
2019-03-24T10:45:40.170Z,20.53
2019-03-24T10:46:48.457Z,20.71
2019-03-24T10:47:56.617Z,20.89
2019-03-24T10:49:05.036Z,21.09
2019-03-24T10:50:14.755Z,21.30
2019-03-24T10:51:24.615Z,21.49
2019-03-24T10:52:33.131Z,21.69
2019-03-24T10:53:41.206Z,21.86
2019-03-24T10:54:49.569Z,22.03
2019-03-24T10:55:57.960Z,22.20
2019-03-24T10:57:06.583Z,22.37
2019-03-24T10:58:15.035Z,22.53
2019-03-24T10:59:23.078Z,22.72
2019-03-24T11:00:43.049Z,22.87
2019-03-24T11:01:51.200Z,23.05
2019-03-24T11:02:59.408Z,23.24
2019-03-24T11:04:08.215Z,23.30
2019-03-24T11:05:16.411Z,23.44
2019-03-24T11:06:24.619Z,23.60
2019-03-24T11:07:32.761Z,23.76
2019-03-24T11:08:40.908Z,23.89
2019-03-24T11:09:49.513Z,24.04
2019-03-24T11:10:57.729Z,24.17
2019-03-24T11:12:05.907Z,24.25
2019-03-24T11:13:15.372Z,24.38
2019-03-24T11:14:24.016Z,24.47
2019-03-24T11:15:32.095Z,24.58
2019-03-24T11:16:40.529Z,24.43
2019-03-24T11:17:48.784Z,24.39
2019-03-24T11:18:56.991Z,24.53
2019-03-24T11:20:08.566Z,24.66
2019-03-24T11:21:16.832Z,24.75
2019-03-24T11:22:25.107Z,24.83
2019-03-24T11:23:33.241Z,24.90
2019-03-24T11:24:41.667Z,24.98
2019-03-24T11:25:50.170Z,25.00
2019-03-24T11:26:58.241Z,25.04
2019-03-24T11:28:06.429Z,25.11
2019-03-24T11:29:14.582Z,25.16
2019-03-24T11:30:23.168Z,25.29
2019-03-24T11:31:31.730Z,25.39
2019-03-24T11:32:40.053Z,25.47
2019-03-24T11:33:48.871Z,25.41
2019-03-24T11:34:57.264Z,25.50
2019-03-24T11:36:05.936Z,25.57
2019-03-24T11:37:14.301Z,25.65
2019-03-24T11:38:22.984Z,25.77
2019-03-24T11:39:31.063Z,25.69
2019-03-24T11:40:39.201Z,25.67
2019-03-24T11:41:47.411Z,25.75
2019-03-24T11:42:55.397Z,25.85
2019-03-24T11:44:03.759Z,25.97
2019-03-24T11:45:14.349Z,26.08
2019-03-24T11:46:23.331Z,26.21
2019-03-24T11:47:31.382Z,26.29
2019-03-24T11:48:39.550Z,26.36
2019-03-24T11:49:49.429Z,26.42
2019-03-24T11:50:57.382Z,26.33
2019-03-24T11:52:07.123Z,26.41
2019-03-24T11:53:15.089Z,26.55
2019-03-24T11:54:23.411Z,26.66
2019-03-24T11:55:31.752Z,26.70
2019-03-24T11:56:40.104Z,26.78
2019-03-24T11:57:48.269Z,26.88
2019-03-24T11:58:56.259Z,26.96
2019-03-24T12:00:13.361Z,26.91
2019-03-24T12:01:21.730Z,26.88
2019-03-24T12:02:30.075Z,26.72
2019-03-24T12:03:38.032Z,26.68
2019-03-24T12:04:46.224Z,26.71
2019-03-24T12:05:54.622Z,26.79
2019-03-24T12:07:03.316Z,26.91
2019-03-24T12:08:11.545Z,27.00
2019-03-24T12:09:19.731Z,26.91
2019-03-24T12:10:28.017Z,26.75
2019-03-24T12:11:37.161Z,26.59
2019-03-24T12:12:45.381Z,26.59
2019-03-24T12:13:53.772Z,26.60
2019-03-24T12:15:01.867Z,26.66
2019-03-24T12:16:10.059Z,26.78
2019-03-24T12:17:19.093Z,26.77
2019-03-24T12:18:27.210Z,26.61
2019-03-24T12:19:35.353Z,26.53
2019-03-24T12:20:43.656Z,26.56
2019-03-24T12:21:52.486Z,26.59
2019-03-24T12:23:00.756Z,26.69
2019-03-24T12:24:08.804Z,26.78
2019-03-24T12:25:17.072Z,26.91
2019-03-24T12:26:25.481Z,27.03
2019-03-24T12:27:33.705Z,27.16
2019-03-24T12:28:42.271Z,27.25
2019-03-24T12:29:50.432Z,27.36
2019-03-24T12:30:59.434Z,27.45
2019-03-24T12:32:07.979Z,27.51
2019-03-24T12:33:16.533Z,27.57
2019-03-24T12:34:24.976Z,27.63
2019-03-24T12:35:32.846Z,27.71
2019-03-24T12:36:41.110Z,27.84
2019-03-24T12:37:49.338Z,27.89
2019-03-24T12:38:57.654Z,27.97
2019-03-24T12:40:08.596Z,28.01
2019-03-24T12:41:16.927Z,28.01
2019-03-24T12:42:25.016Z,28.05
2019-03-24T12:43:33.080Z,28.05
2019-03-24T12:44:41.457Z,28.06
2019-03-24T12:45:49.727Z,28.07
2019-03-24T12:46:58.125Z,28.10
2019-03-24T12:48:06.170Z,28.15
2019-03-24T12:49:14.338Z,28.18
2019-03-24T12:50:30.894Z,28.23
2019-03-24T12:51:32.245Z,28.28
2019-03-24T12:52:41.127Z,28.26
2019-03-24T12:53:49.198Z,28.21
2019-03-24T12:54:57.318Z,28.03
2019-03-24T12:56:05.642Z,27.98
2019-03-24T12:57:13.708Z,27.93
2019-03-24T12:58:23.060Z,27.87
2019-03-24T12:59:31.182Z,27.85
2019-03-24T13:00:40.622Z,27.67
2019-03-24T13:01:48.683Z,27.68
2019-03-24T13:02:56.995Z,27.66
2019-03-24T13:04:05.178Z,27.70
2019-03-24T13:05:13.901Z,27.78
2019-03-24T13:06:22.173Z,27.83
2019-03-24T13:07:30.363Z,27.88
2019-03-24T13:08:38.089Z,27.94
2019-03-24T13:09:46.276Z,27.98
2019-03-24T13:10:54.604Z,27.98
2019-03-24T13:12:02.706Z,28.02
2019-03-24T13:13:12.170Z,28.00
2019-03-24T13:14:20.832Z,27.98
2019-03-24T13:15:29.202Z,28.00
2019-03-24T13:16:37.310Z,28.04
2019-03-24T13:17:45.430Z,28.06
2019-03-24T13:18:53.627Z,28.08
2019-03-24T13:20:01.959Z,28.08
2019-03-24T13:21:09.897Z,28.13
2019-03-24T13:22:18.116Z,28.16
2019-03-24T13:23:26.055Z,28.19
2019-03-24T13:24:34.291Z,28.10
2019-03-24T13:25:42.509Z,27.99
2019-03-24T13:26:50.511Z,27.75
2019-03-24T13:27:58.918Z,27.59
2019-03-24T13:29:06.855Z,27.29
2019-03-24T13:30:15.363Z,27.11
2019-03-24T13:31:23.608Z,27.18
2019-03-24T13:32:31.610Z,27.31
2019-03-24T13:33:39.501Z,27.41
2019-03-24T13:34:47.566Z,27.49
2019-03-24T13:35:57.657Z,27.55
2019-03-24T13:37:05.885Z,27.61
2019-03-24T13:38:14.010Z,27.62
2019-03-24T13:39:21.926Z,27.65
2019-03-24T13:40:30.021Z,27.70
2019-03-24T13:41:38.103Z,27.78
2019-03-24T13:42:46.019Z,27.85
2019-03-24T13:43:54.141Z,27.90
2019-03-24T13:45:02.612Z,27.94
2019-03-24T13:46:10.912Z,28.00
2019-03-24T13:47:18.908Z,28.05
2019-03-24T13:48:26.990Z,28.07
2019-03-24T13:49:35.056Z,28.08
2019-03-24T13:50:43.303Z,28.08
2019-03-24T13:51:51.264Z,28.06
2019-03-24T13:52:59.602Z,28.01
2019-03-24T13:54:09.062Z,27.99
2019-03-24T13:55:17.105Z,27.95
2019-03-24T13:56:25.273Z,27.94
2019-03-24T13:57:33.262Z,27.84
2019-03-24T13:58:41.087Z,27.77
2019-03-24T13:59:49.205Z,27.72
2019-03-24T14:00:57.331Z,27.60
2019-03-24T14:02:06.057Z,27.31
2019-03-24T14:03:14.112Z,27.03
2019-03-24T14:04:22.146Z,26.66
2019-03-24T14:05:30.200Z,26.58
2019-03-24T14:06:38.134Z,26.55
2019-03-24T14:07:46.294Z,26.59
2019-03-24T14:08:54.514Z,26.44
2019-03-24T14:10:02.808Z,26.29
2019-03-24T14:11:10.773Z,26.34
2019-03-24T14:12:18.861Z,26.39
2019-03-24T14:13:26.823Z,26.43
2019-03-24T14:14:34.907Z,26.48
2019-03-24T14:15:44.003Z,26.55
2019-03-24T14:16:52.081Z,26.56
2019-03-24T14:18:00.583Z,26.55
2019-03-24T14:19:08.676Z,26.55
2019-03-24T14:20:17.333Z,26.54
2019-03-24T14:21:25.286Z,26.53
2019-03-24T14:22:33.572Z,26.32
2019-03-24T14:23:41.792Z,26.00
2019-03-24T14:24:49.829Z,25.87
2019-03-24T14:25:57.893Z,25.90
2019-03-24T14:27:06.290Z,25.88
2019-03-24T14:28:14.272Z,25.74
2019-03-24T14:29:22.286Z,25.68
2019-03-24T14:30:48.083Z,25.62
2019-03-24T14:31:56.203Z,25.67
2019-03-24T14:33:04.631Z,25.75
2019-03-24T14:34:12.716Z,25.79
2019-03-24T14:35:20.977Z,25.82
2019-03-24T14:36:29.037Z,25.75
2019-03-24T14:37:37.067Z,25.68
2019-03-24T14:38:45.192Z,25.70
2019-03-24T14:39:53.105Z,25.70
2019-03-24T14:41:01.402Z,25.71